createdAt,value
2018-07-23T00:04:19.912Z,16.80
2018-07-23T00:06:55.365Z,16.80
2018-07-23T00:09:30.706Z,16.70
2018-07-23T00:12:06.142Z,16.70
2018-07-23T00:14:41.637Z,16.70
2018-07-23T00:17:17.241Z,16.70
2018-07-23T00:19:52.887Z,16.70
2018-07-23T00:22:28.645Z,16.70
2018-07-23T00:25:04.170Z,16.70
2018-07-23T00:27:39.633Z,16.70
2018-07-23T00:30:14.886Z,16.60
2018-07-23T00:32:50.448Z,16.60
2018-07-23T00:35:25.942Z,16.60
2018-07-23T00:38:01.729Z,16.50
2018-07-23T00:40:37.251Z,16.50
2018-07-23T00:43:12.920Z,16.60
2018-07-23T00:48:23.529Z,16.50
2018-07-23T00:50:58.717Z,16.50
2018-07-23T00:53:34.293Z,16.40
2018-07-23T00:56:09.576Z,16.50
2018-07-23T00:58:45.104Z,16.50
2018-07-23T01:01:20.268Z,16.40
2018-07-23T01:03:55.776Z,16.40
2018-07-23T01:06:31.036Z,16.50
2018-07-23T01:09:09.641Z,16.50
2018-07-23T01:11:44.872Z,16.40
2018-07-23T01:14:20.664Z,16.50
2018-07-23T01:16:56.171Z,16.40
2018-07-23T01:19:31.713Z,16.50
2018-07-23T01:22:07.080Z,16.50
2018-07-23T01:24:43.008Z,16.50
2018-07-23T01:27:18.445Z,16.40
2018-07-23T01:29:54.155Z,16.40
2018-07-23T01:32:29.444Z,16.40
2018-07-23T01:35:05.193Z,16.40
2018-07-23T01:37:40.661Z,16.40
2018-07-23T01:40:16.093Z,16.40
2018-07-23T01:42:51.601Z,16.30
2018-07-23T01:45:27.394Z,16.30
2018-07-23T01:48:02.608Z,16.20
2018-07-23T01:50:38.283Z,16.30
2018-07-23T01:53:13.668Z,16.30
2018-07-23T01:55:49.197Z,16.30
2018-07-23T01:58:24.534Z,16.30
2018-07-23T02:01:03.649Z,16.20
2018-07-23T02:03:40.111Z,16.20
2018-07-23T02:06:15.861Z,16.20
2018-07-23T02:08:51.129Z,16.20
2018-07-23T02:11:26.876Z,16.20
2018-07-23T02:14:02.230Z,16.30
2018-07-23T02:19:13.466Z,16.20
2018-07-23T02:21:49.061Z,16.20
2018-07-23T02:24:24.969Z,16.20
2018-07-23T02:27:00.657Z,16.20
2018-07-23T02:29:36.175Z,16.10
2018-07-23T02:32:12.067Z,16.10
2018-07-23T02:34:47.446Z,16.20
2018-07-23T02:37:22.961Z,16.20
2018-07-23T02:39:58.519Z,16.20
2018-07-23T02:42:34.133Z,16.10
2018-07-23T02:45:09.686Z,16.10
2018-07-23T02:47:45.245Z,16.20
2018-07-23T02:50:20.743Z,16.20
2018-07-23T02:55:31.514Z,16.10
2018-07-23T02:58:07.339Z,16.10
2018-07-23T03:03:18.229Z,16.10
2018-07-23T03:05:53.732Z,16.10
2018-07-23T03:08:29.428Z,16.10
2018-07-23T03:11:04.965Z,16.10
2018-07-23T03:13:40.730Z,16.10
2018-07-23T03:16:16.217Z,16.10
2018-07-23T03:18:52.224Z,16.10
2018-07-23T03:21:27.426Z,16.10
2018-07-23T03:24:03.170Z,16.10
2018-07-23T03:26:38.493Z,16.20
2018-07-23T03:29:14.011Z,16.20
2018-07-23T03:31:49.407Z,16.20
2018-07-23T03:34:24.977Z,16.20
2018-07-23T03:37:00.981Z,16.20
2018-07-23T03:39:36.501Z,16.30
2018-07-23T03:42:11.960Z,16.30
2018-07-23T03:44:47.601Z,16.30
2018-07-23T03:49:58.693Z,16.50
2018-07-23T03:52:34.164Z,16.50
2018-07-23T03:55:09.791Z,16.50
2018-07-23T03:57:45.268Z,16.60
2018-07-23T04:00:20.890Z,16.70
2018-07-23T04:02:56.373Z,16.70
2018-07-23T04:05:32.094Z,16.80
2018-07-23T04:08:07.430Z,16.90
2018-07-23T04:10:42.936Z,16.90
2018-07-23T04:13:18.142Z,17.00
2018-07-23T04:18:31.717Z,17.10
2018-07-23T04:21:07.625Z,17.10
2018-07-23T04:23:43.170Z,17.20
2018-07-23T04:26:18.565Z,17.20
2018-07-23T04:28:54.117Z,17.20
2018-07-23T04:34:04.729Z,17.30
2018-07-23T04:39:15.453Z,17.40
2018-07-23T04:41:51.285Z,17.40
2018-07-23T04:44:26.730Z,17.50
2018-07-23T04:47:02.279Z,17.50
2018-07-23T04:49:37.639Z,17.60
2018-07-23T04:52:13.065Z,17.60
2018-07-23T04:54:48.421Z,17.60
2018-07-23T04:57:23.956Z,17.70
2018-07-23T04:59:59.581Z,17.90
2018-07-23T05:02:35.273Z,18.00
2018-07-23T05:05:10.574Z,18.10
2018-07-23T05:07:46.049Z,18.20
2018-07-23T05:10:21.403Z,20.00
2018-07-23T05:12:56.973Z,22.50
2018-07-23T05:15:32.337Z,24.80
2018-07-23T05:18:07.960Z,26.30
2018-07-23T05:20:43.465Z,27.00
2018-07-23T05:25:54.317Z,28.40
2018-07-23T05:28:30.014Z,29.30
2018-07-23T05:31:06.185Z,30.10
2018-07-23T05:33:41.590Z,29.90
2018-07-23T05:36:17.108Z,29.80
2018-07-23T05:38:52.725Z,30.10
2018-07-23T05:41:28.287Z,30.20
2018-07-23T05:46:37.743Z,31.00
2018-07-23T05:49:12.781Z,31.20
2018-07-23T05:51:47.342Z,31.40
2018-07-23T05:54:22.340Z,31.40
2018-07-23T05:56:57.341Z,31.40
2018-07-23T05:59:32.722Z,31.70
2018-07-23T06:02:07.972Z,31.60
2018-07-23T06:04:42.692Z,31.70
2018-07-23T06:07:17.440Z,31.50
2018-07-23T06:09:52.343Z,31.80
2018-07-23T06:12:27.040Z,31.20
2018-07-23T06:15:02.009Z,30.80
2018-07-23T06:17:36.828Z,30.80
2018-07-23T06:20:11.576Z,29.70
2018-07-23T06:22:46.336Z,29.60
2018-07-23T06:25:21.547Z,29.50
2018-07-23T06:27:56.249Z,29.50
2018-07-23T06:30:31.037Z,29.00
2018-07-23T06:33:06.535Z,29.00
2018-07-23T06:35:42.474Z,29.10
2018-07-23T06:38:17.966Z,29.20
2018-07-23T06:40:53.675Z,29.90
2018-07-23T06:43:29.261Z,28.60
2018-07-23T06:46:04.653Z,28.40
2018-07-23T06:48:40.065Z,29.20
2018-07-23T06:51:15.579Z,28.80
2018-07-23T06:53:51.065Z,29.70
2018-07-23T06:56:25.839Z,30.50
2018-07-23T06:59:01.137Z,31.10
2018-07-23T07:01:36.701Z,31.80
2018-07-23T07:04:12.112Z,31.40
2018-07-23T07:06:47.577Z,32.20
2018-07-23T07:09:23.010Z,32.10
2018-07-23T07:11:58.651Z,31.60
2018-07-23T07:14:34.044Z,30.80
2018-07-23T07:17:09.840Z,30.50
2018-07-23T07:19:45.274Z,30.40
2018-07-23T07:22:20.867Z,30.10
2018-07-23T07:24:56.346Z,29.50
2018-07-23T07:27:31.753Z,29.00
2018-07-23T07:30:07.921Z,28.90
2018-07-23T07:32:43.493Z,28.20
2018-07-23T07:35:19.024Z,27.80
2018-07-23T07:37:54.436Z,27.50
2018-07-23T07:40:29.793Z,27.50
2018-07-23T07:43:05.482Z,27.70
2018-07-23T07:45:40.809Z,27.70
2018-07-23T07:48:16.372Z,27.50
2018-07-23T07:50:51.895Z,27.60
2018-07-23T07:53:27.568Z,27.50
2018-07-23T07:56:02.817Z,27.40
2018-07-23T07:58:38.357Z,27.50
2018-07-23T08:01:13.661Z,26.70
2018-07-23T08:03:49.245Z,26.60
2018-07-23T08:06:24.745Z,26.50
2018-07-23T08:09:00.345Z,26.30
2018-07-23T08:11:36.063Z,26.20
2018-07-23T08:16:46.701Z,26.10
2018-07-23T08:19:22.305Z,26.20
2018-07-23T08:21:57.477Z,26.30
2018-07-23T08:24:33.321Z,26.30
2018-07-23T08:27:08.487Z,26.50
2018-07-23T08:29:43.901Z,26.70
2018-07-23T08:32:19.180Z,27.00
2018-07-23T08:37:30.105Z,26.60
2018-07-23T08:40:06.705Z,26.20
2018-07-23T08:42:42.153Z,26.20
2018-07-23T08:47:52.064Z,26.20
2018-07-23T08:50:26.869Z,25.90
2018-07-23T08:53:01.500Z,26.10
2018-07-23T08:55:36.524Z,26.10
2018-07-23T08:58:11.213Z,26.00
2018-07-23T09:00:46.294Z,26.00
2018-07-23T09:03:20.996Z,25.80
2018-07-23T09:05:55.960Z,25.60
2018-07-23T09:08:31.324Z,26.00
2018-07-23T09:11:07.045Z,26.30
2018-07-23T09:13:42.393Z,25.70
2018-07-23T09:16:18.434Z,25.80
2018-07-23T09:18:53.740Z,26.00
2018-07-23T09:21:29.741Z,26.10
2018-07-23T09:24:05.434Z,26.30
2018-07-23T09:29:16.434Z,25.20
2018-07-23T09:31:52.034Z,25.20
2018-07-23T09:34:27.605Z,25.50
2018-07-23T09:37:03.240Z,25.60
2018-07-23T09:39:38.809Z,25.90
2018-07-23T09:42:14.242Z,25.40
2018-07-23T09:44:49.585Z,25.10
2018-07-23T09:47:25.213Z,25.30
2018-07-23T09:50:00.377Z,25.80
2018-07-23T09:52:36.006Z,26.00
2018-07-23T09:55:11.381Z,26.00
2018-07-23T09:57:46.989Z,25.90
2018-07-23T10:00:27.509Z,25.40
2018-07-23T10:03:03.179Z,25.40
2018-07-23T10:05:38.356Z,25.90
2018-07-23T10:08:14.293Z,26.20
2018-07-23T10:10:49.753Z,26.60
2018-07-23T10:13:25.299Z,26.80
2018-07-23T10:16:00.843Z,27.10
2018-07-23T10:18:36.488Z,27.20
2018-07-23T10:21:11.717Z,27.10
2018-07-23T10:23:47.283Z,27.00
2018-07-23T10:28:58.593Z,27.00
2018-07-23T10:31:34.085Z,27.00
2018-07-23T10:34:09.591Z,26.80
2018-07-23T10:36:45.007Z,26.80
2018-07-23T10:44:30.989Z,27.00
2018-07-23T10:47:06.369Z,26.80
2018-07-23T10:49:42.038Z,26.80
2018-07-23T10:52:17.448Z,26.80
2018-07-23T10:54:52.917Z,27.00
2018-07-23T10:57:28.245Z,27.00
2018-07-23T11:00:04.020Z,26.50
2018-07-23T11:02:39.560Z,26.80
2018-07-23T11:10:25.597Z,27.20
2018-07-23T11:13:01.058Z,27.10
2018-07-23T11:18:11.609Z,28.10
2018-07-23T11:20:47.685Z,27.70
2018-07-23T11:23:23.065Z,27.30
2018-07-23T11:25:58.785Z,27.50
2018-07-23T11:28:34.049Z,27.40
2018-07-23T11:31:09.597Z,27.70
2018-07-23T11:33:45.102Z,27.90
2018-07-23T11:36:20.765Z,27.40
2018-07-23T11:38:56.343Z,27.00
2018-07-23T11:41:31.883Z,26.70
2018-07-23T11:44:07.381Z,26.80
2018-07-23T11:46:42.956Z,27.20
2018-07-23T11:49:18.255Z,27.30
2018-07-23T11:51:53.845Z,27.20
2018-07-23T11:54:29.097Z,27.60
2018-07-23T11:57:04.582Z,27.90
2018-07-23T11:59:40.081Z,27.70
2018-07-23T12:02:15.757Z,27.50
2018-07-23T12:04:51.194Z,27.30
2018-07-23T12:07:26.736Z,28.00
2018-07-23T12:10:02.237Z,28.40
2018-07-23T12:12:37.813Z,28.80
2018-07-23T12:15:13.277Z,29.40
2018-07-23T12:17:48.813Z,29.50
2018-07-23T12:20:24.168Z,29.40
2018-07-23T12:22:59.587Z,29.30
2018-07-23T12:25:35.374Z,28.90
2018-07-23T12:28:10.901Z,28.10
2018-07-23T12:30:46.330Z,27.70
2018-07-23T12:33:21.892Z,27.40
2018-07-23T12:35:57.101Z,27.30
2018-07-23T12:38:32.685Z,27.60
2018-07-23T12:41:08.082Z,27.50
2018-07-23T12:43:43.574Z,28.00
2018-07-23T12:48:54.978Z,28.20
2018-07-23T12:51:30.521Z,28.00
2018-07-23T12:54:06.273Z,28.10
2018-07-23T12:56:41.781Z,28.00
2018-07-23T12:59:17.372Z,27.90
2018-07-23T13:01:52.893Z,27.80
2018-07-23T13:04:28.441Z,27.90
2018-07-23T13:07:03.969Z,27.90
2018-07-23T13:09:39.473Z,28.00
2018-07-23T13:12:14.681Z,28.00
2018-07-23T13:14:50.219Z,27.90
2018-07-23T13:17:25.520Z,27.90
2018-07-23T13:20:01.033Z,27.80
2018-07-23T13:22:36.513Z,27.90
2018-07-23T13:25:12.230Z,27.90
2018-07-23T13:27:47.730Z,28.50
2018-07-23T13:30:23.421Z,28.60
2018-07-23T13:32:58.773Z,28.50
2018-07-23T13:35:34.286Z,28.30
2018-07-23T13:38:10.163Z,28.30
2018-07-23T13:40:46.258Z,28.10
2018-07-23T13:43:21.693Z,27.70
2018-07-23T13:45:57.225Z,27.70
2018-07-23T13:48:32.742Z,27.70
2018-07-23T13:51:08.462Z,27.60
2018-07-23T13:53:43.785Z,27.50
2018-07-23T13:56:19.462Z,27.50
2018-07-23T13:58:55.009Z,27.70
2018-07-23T14:01:30.513Z,27.70
2018-07-23T14:04:05.971Z,27.80
2018-07-23T14:06:41.446Z,27.70
2018-07-23T14:09:16.885Z,28.00
2018-07-23T14:11:52.364Z,28.00
2018-07-23T14:14:27.701Z,28.00
2018-07-23T14:17:04.107Z,27.80
2018-07-23T14:19:39.582Z,27.80
2018-07-23T14:22:15.224Z,27.90
2018-07-23T14:24:50.964Z,28.10
2018-07-23T14:30:01.642Z,28.20
2018-07-23T14:32:37.396Z,28.50
2018-07-23T14:35:12.789Z,28.60
2018-07-23T14:37:48.382Z,28.70
2018-07-23T14:40:23.833Z,28.70
2018-07-23T14:42:59.373Z,28.80
2018-07-23T14:45:34.613Z,28.50
2018-07-23T14:48:10.162Z,28.30
2018-07-23T14:50:45.789Z,28.30
2018-07-23T14:53:21.560Z,28.40
2018-07-23T14:55:56.924Z,28.10
2018-07-23T14:58:32.799Z,28.30
2018-07-23T15:01:08.038Z,28.40
2018-07-23T15:03:43.552Z,28.40
2018-07-23T15:06:19.021Z,28.30
2018-07-23T15:08:54.648Z,28.30
2018-07-23T15:11:30.091Z,28.20
2018-07-23T15:14:05.745Z,28.40
2018-07-23T15:19:16.537Z,28.20
2018-07-23T15:21:51.920Z,28.00
2018-07-23T15:24:27.627Z,28.10
2018-07-23T15:27:03.258Z,28.00
2018-07-23T15:29:38.721Z,27.90
2018-07-23T15:32:14.296Z,27.90
2018-07-23T15:34:49.919Z,27.70
2018-07-23T15:37:25.401Z,27.50
2018-07-23T15:40:00.910Z,27.30
2018-07-23T15:45:11.604Z,27.60
2018-07-23T15:47:46.950Z,27.70
2018-07-23T15:50:22.484Z,27.70
2018-07-23T15:52:57.753Z,27.60
2018-07-23T15:55:33.277Z,27.70
2018-07-23T15:58:08.740Z,27.70
2018-07-23T16:00:44.165Z,27.70
2018-07-23T16:03:19.714Z,27.70
2018-07-23T16:05:55.189Z,27.80
2018-07-23T16:08:30.602Z,27.70
2018-07-23T16:11:06.150Z,27.70
2018-07-23T16:13:41.589Z,27.80
2018-07-23T16:16:17.237Z,27.80
2018-07-23T16:18:52.669Z,27.60
2018-07-23T16:21:28.138Z,27.60
2018-07-23T16:24:03.491Z,27.60
2018-07-23T16:26:39.336Z,27.50
2018-07-23T16:29:14.790Z,27.40
2018-07-23T16:31:50.429Z,27.20
2018-07-23T16:34:25.655Z,27.10
2018-07-23T16:37:01.219Z,27.10
2018-07-23T16:39:36.681Z,27.10
2018-07-23T16:42:12.223Z,27.10
2018-07-23T16:44:47.513Z,27.20
2018-07-23T16:47:23.170Z,27.10
2018-07-23T16:49:58.477Z,27.00
2018-07-23T16:52:34.058Z,27.00
2018-07-23T16:55:09.337Z,27.00
2018-07-23T16:57:44.877Z,27.00
2018-07-23T17:00:20.373Z,27.00
2018-07-23T17:02:55.989Z,26.90
2018-07-23T17:05:31.337Z,26.80
2018-07-23T17:08:06.970Z,26.80
2018-07-23T17:10:42.429Z,26.70
2018-07-23T17:13:17.988Z,26.70
2018-07-23T17:15:53.627Z,26.70
2018-07-23T17:18:29.571Z,26.60
2018-07-23T17:21:04.923Z,26.60
2018-07-23T17:23:40.457Z,26.60
2018-07-23T17:26:15.944Z,26.50
2018-07-23T17:28:51.445Z,26.40
2018-07-23T17:31:26.709Z,26.30
2018-07-23T17:34:02.239Z,26.30
2018-07-23T17:36:37.561Z,26.30
2018-07-23T17:41:48.669Z,26.20
2018-07-23T17:44:24.255Z,26.20
2018-07-23T17:46:59.737Z,26.10
2018-07-23T17:49:35.531Z,26.10
2018-07-23T17:52:11.013Z,26.00
2018-07-23T17:54:46.419Z,26.00
2018-07-23T17:57:21.761Z,25.90
2018-07-23T17:59:57.513Z,25.90
2018-07-23T18:02:32.710Z,25.90
2018-07-23T18:05:08.511Z,25.80
2018-07-23T18:07:43.862Z,25.80
2018-07-23T18:10:19.401Z,25.70
2018-07-23T18:12:54.681Z,25.60
2018-07-23T18:18:05.406Z,25.50
2018-07-23T18:20:41.178Z,25.40
2018-07-23T18:23:16.637Z,25.50
2018-07-23T18:25:52.474Z,25.40
2018-07-23T18:28:28.066Z,25.40
2018-07-23T18:33:38.824Z,25.20
2018-07-23T18:36:14.571Z,25.10
2018-07-23T18:38:50.154Z,25.00
2018-07-23T18:41:25.553Z,24.90
2018-07-23T18:44:00.894Z,24.80
2018-07-23T18:46:36.556Z,24.80
2018-07-23T18:50:15.237Z,24.70
2018-07-23T18:52:50.837Z,24.70
2018-07-23T18:55:26.184Z,24.50
2018-07-23T18:58:01.617Z,24.40
2018-07-23T19:00:37.093Z,24.40
2018-07-23T19:03:12.496Z,24.30
2018-07-23T19:05:47.942Z,24.20
2018-07-23T19:08:23.537Z,24.10
2018-07-23T19:10:58.981Z,24.00
2018-07-23T19:13:34.534Z,23.90
2018-07-23T19:16:09.906Z,23.80
2018-07-23T19:18:45.489Z,23.70
2018-07-23T19:21:21.017Z,23.60
2018-07-23T19:23:56.500Z,23.50
2018-07-23T19:26:32.001Z,23.50
2018-07-23T19:29:07.625Z,23.50
2018-07-23T19:31:42.835Z,23.50
2018-07-23T19:34:18.464Z,23.40
2018-07-23T19:36:53.791Z,23.40
2018-07-23T19:39:29.349Z,23.30
2018-07-23T19:42:05.340Z,23.30
2018-07-23T19:44:40.971Z,23.20
2018-07-23T19:47:16.473Z,23.10
2018-07-23T19:49:52.053Z,23.10
2018-07-23T19:52:27.566Z,23.00
2018-07-23T19:55:03.258Z,22.90
2018-07-23T19:57:38.862Z,22.80
2018-07-23T20:00:14.451Z,22.80
2018-07-23T20:02:49.819Z,22.80
2018-07-23T20:05:25.346Z,22.70
2018-07-23T20:08:00.757Z,22.50
2018-07-23T20:10:36.233Z,22.40
2018-07-23T20:13:11.706Z,22.40
2018-07-23T20:15:47.237Z,22.30
2018-07-23T20:18:22.791Z,22.20
2018-07-23T20:20:58.291Z,22.20
2018-07-23T20:23:33.721Z,22.20
2018-07-23T20:26:09.354Z,22.10
2018-07-23T20:28:44.721Z,22.10
2018-07-23T20:31:20.202Z,22.10
2018-07-23T20:33:55.672Z,22.10
2018-07-23T20:36:31.397Z,22.00
2018-07-23T20:39:08.140Z,22.00
2018-07-23T20:41:43.854Z,21.90
2018-07-23T20:44:19.274Z,21.90
2018-07-23T20:46:54.922Z,21.80
2018-07-23T20:49:30.453Z,21.80
2018-07-23T20:52:05.930Z,21.70
2018-07-23T20:54:41.237Z,21.70
2018-07-23T20:57:16.910Z,21.70
2018-07-23T20:59:52.190Z,21.60
2018-07-23T21:02:27.796Z,21.60
2018-07-23T21:05:03.170Z,21.50
2018-07-23T21:07:38.633Z,21.50
2018-07-23T21:10:14.017Z,21.50
2018-07-23T21:12:49.687Z,21.50
2018-07-23T21:15:25.146Z,21.50
2018-07-23T21:18:00.778Z,21.50
2018-07-23T21:20:36.264Z,21.40
2018-07-23T21:25:47.112Z,21.40
2018-07-23T21:30:57.729Z,21.40
2018-07-23T21:33:33.449Z,21.30
2018-07-23T21:36:08.789Z,21.20
2018-07-23T21:38:44.441Z,21.10
2018-07-23T21:41:19.897Z,21.00
2018-07-23T21:43:55.440Z,20.90
2018-07-23T21:46:31.089Z,21.00
2018-07-23T21:49:07.043Z,20.90
2018-07-23T21:51:42.573Z,20.80
2018-07-23T21:54:17.158Z,20.80
2018-07-23T21:56:52.724Z,20.80
2018-07-23T21:59:28.207Z,20.80
2018-07-23T22:02:03.737Z,20.80
2018-07-23T22:04:39.405Z,20.80
2018-07-23T22:07:14.867Z,20.70
2018-07-23T22:09:50.512Z,20.70
2018-07-23T22:12:25.879Z,20.70
2018-07-23T22:15:01.499Z,20.70
2018-07-23T22:17:36.838Z,20.70
2018-07-23T22:20:12.817Z,20.70
2018-07-23T22:22:48.273Z,20.60
2018-07-23T22:25:24.134Z,20.60
2018-07-23T22:27:59.597Z,20.50
2018-07-23T22:30:35.185Z,20.50
2018-07-23T22:33:10.493Z,20.40
2018-07-23T22:35:46.172Z,20.40
2018-07-23T22:38:21.653Z,20.40
2018-07-23T22:40:57.275Z,20.30
2018-07-23T22:43:32.617Z,20.30
2018-07-23T22:46:08.522Z,20.20
2018-07-23T22:48:43.858Z,20.30
2018-07-23T22:51:19.477Z,20.20
2018-07-23T22:53:54.807Z,20.20
2018-07-23T22:59:05.529Z,20.20
2018-07-23T23:01:41.245Z,20.20
2018-07-23T23:04:16.673Z,20.20
2018-07-23T23:06:52.137Z,20.20
2018-07-23T23:09:27.455Z,20.20
2018-07-23T23:12:03.028Z,20.20
2018-07-23T23:14:38.508Z,20.20
2018-07-23T23:17:14.120Z,20.10
2018-07-23T23:19:49.489Z,20.20
2018-07-23T23:22:25.114Z,20.20
2018-07-23T23:25:00.882Z,20.20
2018-07-23T23:27:36.503Z,20.20
2018-07-23T23:30:11.901Z,20.20
2018-07-23T23:32:47.513Z,20.20
2018-07-23T23:35:22.732Z,20.20
2018-07-23T23:37:58.198Z,20.30
2018-07-23T23:40:33.654Z,20.30
2018-07-23T23:43:09.111Z,20.30
2018-07-23T23:45:45.554Z,20.30
2018-07-23T23:48:21.202Z,20.30
2018-07-23T23:50:56.764Z,20.30
2018-07-23T23:53:32.212Z,20.30
2018-07-23T23:56:07.581Z,20.30
2018-07-23T23:58:43.303Z,20.30
